createdAt,value
2023-04-16T00:01:15.677Z,2.26
2023-04-16T00:03:41.942Z,2.26
2023-04-16T00:06:08.210Z,2.26
2023-04-16T00:08:35.178Z,2.25
2023-04-16T00:11:01.254Z,2.23
2023-04-16T00:13:27.400Z,2.21
2023-04-16T00:15:53.550Z,2.23
2023-04-16T00:18:20.810Z,2.22
2023-04-16T00:20:46.879Z,2.22
2023-04-16T00:23:12.944Z,2.25
2023-04-16T00:25:39.250Z,2.19
2023-04-16T00:28:05.550Z,2.15
2023-04-16T00:30:31.653Z,2.08
2023-04-16T00:32:58.037Z,2.01
2023-04-16T00:35:24.122Z,1.98
2023-04-16T00:37:50.303Z,1.94
2023-04-16T00:40:16.354Z,1.82
2023-04-16T00:42:42.512Z,1.76
2023-04-16T00:45:08.641Z,1.78
2023-04-16T00:47:34.703Z,1.74
2023-04-16T00:50:00.802Z,1.65
2023-04-16T00:52:27.071Z,1.58
2023-04-16T00:54:53.118Z,1.60
2023-04-16T00:57:20.412Z,1.66
2023-04-16T00:59:46.721Z,1.59
2023-04-16T01:02:13.768Z,1.49
2023-04-16T01:04:39.994Z,1.39
2023-04-16T01:07:06.096Z,1.37
2023-04-16T01:09:32.225Z,1.37
2023-04-16T01:11:58.365Z,1.38
2023-04-16T01:14:24.462Z,1.37
2023-04-16T01:16:50.541Z,1.28
2023-04-16T01:19:16.592Z,1.31
2023-04-16T01:21:42.681Z,1.37
2023-04-16T01:24:08.759Z,1.38
2023-04-16T01:26:34.847Z,1.40
2023-04-16T01:29:00.988Z,1.39
2023-04-16T01:31:27.076Z,1.33
2023-04-16T01:33:53.249Z,1.28
2023-04-16T01:36:19.756Z,1.15
2023-04-16T01:38:45.962Z,0.98
2023-04-16T01:41:12.074Z,0.90
2023-04-16T01:43:40.216Z,0.92
2023-04-16T01:46:06.612Z,0.93
2023-04-16T01:48:32.679Z,0.92
2023-04-16T01:50:59.946Z,0.97
2023-04-16T01:53:26.201Z,0.95
2023-04-16T01:55:52.301Z,0.91
2023-04-16T01:58:18.428Z,0.87
2023-04-16T02:00:44.548Z,0.86
2023-04-16T02:03:10.930Z,0.81
2023-04-16T02:05:37.131Z,0.76
2023-04-16T02:08:03.354Z,0.72
2023-04-16T02:10:29.471Z,0.68
2023-04-16T02:12:55.905Z,0.73
2023-04-16T02:15:23.239Z,0.76
2023-04-16T02:17:54.278Z,0.72
2023-04-16T02:20:20.520Z,0.68
2023-04-16T02:22:46.574Z,0.65
2023-04-16T02:25:13.547Z,0.64
2023-04-16T02:27:39.810Z,0.56
2023-04-16T02:30:05.918Z,0.53
2023-04-16T02:32:32.032Z,0.55
2023-04-16T02:34:58.155Z,0.59
2023-04-16T02:37:25.189Z,0.65
2023-04-16T02:39:52.530Z,0.71
2023-04-16T02:42:18.634Z,0.77
2023-04-16T02:44:44.674Z,0.79
2023-04-16T02:47:10.754Z,0.78
2023-04-16T02:49:36.839Z,0.78
2023-04-16T02:52:02.879Z,0.81
2023-04-16T02:54:29.137Z,0.78
2023-04-16T02:56:55.437Z,0.76
2023-04-16T02:59:21.496Z,0.71
2023-04-16T03:01:47.723Z,0.65
2023-04-16T03:04:13.996Z,0.61
2023-04-16T03:06:40.205Z,0.60
2023-04-16T03:09:06.482Z,0.55
2023-04-16T03:11:32.653Z,0.51
2023-04-16T03:13:58.711Z,0.49
2023-04-16T03:16:24.872Z,0.47
2023-04-16T03:18:51.052Z,0.46
2023-04-16T03:21:17.128Z,0.45
2023-04-16T03:23:43.364Z,0.46
2023-04-16T03:26:09.691Z,0.50
2023-04-16T03:28:35.754Z,0.56
2023-04-16T03:31:01.862Z,0.60
2023-04-16T03:33:28.234Z,0.62
2023-04-16T03:35:54.286Z,0.65
2023-04-16T03:38:20.484Z,0.69
2023-04-16T03:40:46.550Z,0.73
2023-04-16T03:43:12.679Z,0.76
2023-04-16T03:45:38.726Z,0.70
2023-04-16T03:48:04.820Z,0.67
2023-04-16T03:50:30.948Z,0.66
2023-04-16T03:52:57.109Z,0.61
2023-04-16T03:55:23.470Z,0.56
2023-04-16T03:57:49.516Z,0.52
2023-04-16T04:00:15.870Z,0.51
2023-04-16T04:02:42.110Z,0.53
2023-04-16T04:05:08.344Z,0.50
2023-04-16T04:07:34.683Z,0.43
2023-04-16T04:10:00.809Z,0.41
2023-04-16T04:12:26.890Z,0.41
2023-04-16T04:14:53.049Z,0.45
2023-04-16T04:17:19.122Z,0.52
2023-04-16T04:19:59.930Z,0.62
2023-04-16T04:22:26.904Z,0.71
2023-04-16T04:24:53.035Z,0.79
2023-04-16T04:27:19.090Z,0.86
2023-04-16T04:29:45.506Z,0.86
2023-04-16T04:32:11.560Z,0.96
2023-04-16T04:34:37.640Z,1.05
2023-04-16T04:37:03.778Z,1.18
2023-04-16T04:39:29.834Z,1.34
2023-04-16T04:41:55.947Z,1.38
2023-04-16T04:44:22.178Z,1.19
2023-04-16T04:46:48.235Z,1.13
2023-04-16T04:49:14.303Z,1.14
2023-04-16T04:51:40.728Z,1.18
2023-04-16T04:54:06.773Z,1.20
2023-04-16T04:56:33.006Z,1.13
2023-04-16T04:58:59.076Z,1.06
2023-04-16T05:01:25.378Z,0.98
2023-04-16T05:03:51.562Z,0.90
2023-04-16T05:06:17.770Z,0.85
2023-04-16T05:08:43.933Z,0.96
2023-04-16T05:11:10.086Z,1.30
2023-04-16T05:13:36.402Z,1.92
2023-04-16T05:16:02.494Z,2.45
2023-04-16T05:18:28.538Z,2.54
2023-04-16T05:20:55.278Z,2.43
2023-04-16T05:23:21.406Z,2.27
2023-04-16T05:25:47.465Z,2.21
2023-04-16T05:28:13.535Z,2.15
2023-04-16T05:30:39.601Z,2.09
2023-04-16T05:33:05.803Z,2.02
2023-04-16T05:35:31.913Z,2.00
2023-04-16T05:37:58.034Z,2.00
2023-04-16T05:40:24.072Z,2.01
2023-04-16T05:42:50.255Z,2.06
2023-04-16T05:45:16.335Z,2.12
2023-04-16T05:47:42.419Z,2.17
2023-04-16T05:50:08.737Z,2.25
2023-04-16T05:52:34.833Z,2.36
2023-04-16T05:55:01.014Z,2.41
2023-04-16T05:57:27.212Z,2.50
2023-04-16T05:59:53.268Z,2.86
2023-04-16T06:02:19.472Z,3.81
2023-04-16T06:04:45.738Z,4.21
2023-04-16T06:07:11.873Z,4.07
2023-04-16T06:09:38.031Z,4.01
2023-04-16T06:12:04.210Z,4.00
2023-04-16T06:14:30.390Z,4.01
2023-04-16T06:16:56.451Z,4.02
2023-04-16T06:19:22.563Z,4.02
2023-04-16T06:21:48.626Z,4.02
2023-04-16T06:24:14.967Z,4.07
2023-04-16T06:26:41.078Z,4.13
2023-04-16T06:29:07.436Z,4.21
2023-04-16T06:31:33.785Z,4.30
2023-04-16T06:34:00.062Z,4.38
2023-04-16T06:36:27.307Z,4.47
2023-04-16T06:38:53.470Z,4.57
2023-04-16T06:41:19.696Z,4.68
2023-04-16T06:43:46.072Z,4.80
2023-04-16T06:46:12.332Z,4.90
2023-04-16T06:48:38.696Z,5.01
2023-04-16T06:51:04.971Z,5.12
2023-04-16T06:53:31.197Z,5.26
2023-04-16T06:55:57.296Z,5.39
2023-04-16T06:58:23.762Z,5.49
2023-04-16T07:00:50.204Z,5.62
2023-04-16T07:03:16.551Z,5.69
2023-04-16T07:05:42.845Z,5.74
2023-04-16T07:08:09.013Z,5.82
2023-04-16T07:10:35.460Z,5.91
2023-04-16T07:13:01.904Z,6.01
2023-04-16T07:15:28.182Z,6.14
2023-04-16T07:17:54.408Z,6.30
2023-04-16T07:20:20.741Z,6.42
2023-04-16T07:22:46.968Z,6.51
2023-04-16T07:25:13.491Z,6.65
2023-04-16T07:27:39.705Z,6.72
2023-04-16T07:30:05.918Z,6.76
2023-04-16T07:32:32.274Z,6.84
2023-04-16T07:34:58.580Z,6.86
2023-04-16T07:37:24.727Z,6.91
2023-04-16T07:39:51.903Z,7.05
2023-04-16T07:42:17.954Z,7.22
2023-04-16T07:44:43.995Z,7.37
2023-04-16T07:47:10.285Z,7.52
2023-04-16T07:49:36.489Z,7.61
2023-04-16T07:52:02.599Z,7.73
2023-04-16T07:54:30.932Z,7.78
2023-04-16T07:56:57.027Z,7.85
2023-04-16T07:59:24.350Z,7.97
2023-04-16T08:01:50.871Z,8.02
2023-04-16T08:04:22.410Z,8.12
2023-04-16T08:06:48.926Z,8.23
2023-04-16T08:09:15.403Z,8.32
2023-04-16T08:11:41.468Z,8.42
2023-04-16T08:14:07.587Z,8.51
2023-04-16T08:16:33.730Z,8.65
2023-04-16T08:19:00.464Z,8.75
2023-04-16T08:21:27.174Z,8.78
2023-04-16T08:23:53.250Z,8.83
2023-04-16T08:26:19.310Z,8.89
2023-04-16T08:28:45.673Z,8.99
2023-04-16T08:31:11.805Z,9.08
2023-04-16T08:33:37.890Z,9.16
2023-04-16T08:36:04.123Z,9.24
2023-04-16T08:38:30.238Z,9.30
2023-04-16T08:40:56.302Z,9.36
2023-04-16T08:43:22.567Z,9.36
2023-04-16T08:45:48.743Z,9.39
2023-04-16T08:48:15.044Z,9.40
2023-04-16T08:50:41.325Z,9.47
2023-04-16T08:53:07.573Z,9.53
2023-04-16T08:55:33.658Z,9.59
2023-04-16T08:58:00.040Z,9.58
2023-04-16T09:00:26.360Z,9.60
2023-04-16T09:02:52.644Z,9.71
2023-04-16T09:05:21.048Z,9.87
2023-04-16T09:07:47.170Z,9.95
2023-04-16T09:10:13.310Z,10.09
2023-04-16T09:12:39.526Z,10.08
2023-04-16T09:15:05.840Z,10.13
2023-04-16T09:17:32.025Z,10.25
2023-04-16T09:19:58.436Z,10.35
2023-04-16T09:22:24.746Z,10.40
2023-04-16T09:24:50.827Z,10.35
2023-04-16T09:27:16.938Z,10.34
2023-04-16T09:29:43.362Z,10.48
2023-04-16T09:32:09.836Z,10.68
2023-04-16T09:34:36.118Z,10.72
2023-04-16T09:37:02.231Z,10.75
2023-04-16T09:39:28.338Z,10.75
2023-04-16T09:41:55.496Z,10.76
2023-04-16T09:44:21.630Z,10.81
2023-04-16T09:46:47.742Z,10.86
2023-04-16T09:49:14.194Z,10.92
2023-04-16T09:51:40.627Z,10.98
2023-04-16T09:54:06.693Z,11.05
2023-04-16T09:56:32.752Z,11.11
2023-04-16T09:58:58.876Z,11.18
2023-04-16T10:01:25.357Z,11.28
2023-04-16T10:03:51.664Z,11.31
2023-04-16T10:06:18.978Z,11.31
2023-04-16T10:08:45.209Z,11.30
2023-04-16T10:11:11.301Z,11.25
2023-04-16T10:13:37.593Z,11.26
2023-04-16T10:16:03.732Z,11.35
2023-04-16T10:18:29.804Z,11.42
2023-04-16T10:20:56.031Z,11.45
2023-04-16T10:23:22.267Z,11.58
2023-04-16T10:25:48.317Z,11.78
2023-04-16T10:28:14.442Z,11.89
2023-04-16T10:30:41.681Z,11.94
2023-04-16T10:33:07.909Z,12.04
2023-04-16T10:35:34.156Z,12.13
2023-04-16T10:38:00.226Z,12.27
2023-04-16T10:40:26.336Z,12.29
2023-04-16T10:42:52.451Z,12.29
2023-04-16T10:45:18.571Z,12.32
2023-04-16T10:47:44.810Z,12.27
2023-04-16T10:50:10.940Z,12.23
2023-04-16T10:52:37.142Z,12.29
2023-04-16T10:55:03.234Z,12.38
2023-04-16T10:57:30.172Z,12.51
2023-04-16T10:59:56.337Z,12.59
2023-04-16T11:02:23.315Z,12.67
2023-04-16T11:04:51.135Z,12.65
2023-04-16T11:07:17.390Z,12.66
2023-04-16T11:09:46.561Z,12.76
2023-04-16T11:12:12.672Z,12.84
2023-04-16T11:14:38.696Z,12.89
2023-04-16T11:17:04.849Z,12.90
2023-04-16T11:19:30.984Z,12.94
2023-04-16T11:21:57.044Z,13.01
2023-04-16T11:24:24.636Z,13.01
2023-04-16T11:26:52.350Z,12.98
2023-04-16T11:29:18.402Z,12.99
2023-04-16T11:31:45.448Z,12.90
2023-04-16T11:34:11.589Z,12.83
2023-04-16T11:36:37.661Z,12.81
2023-04-16T11:39:03.810Z,12.80
2023-04-16T11:41:30.121Z,12.81
2023-04-16T11:43:56.708Z,12.87
2023-04-16T11:46:27.689Z,12.94
2023-04-16T11:48:54.811Z,13.02
2023-04-16T11:51:22.490Z,13.09
2023-04-16T11:53:48.653Z,13.16
2023-04-16T11:56:15.254Z,13.24
2023-04-16T11:58:43.051Z,13.25
2023-04-16T12:01:09.501Z,13.28
2023-04-16T12:03:36.813Z,13.30
2023-04-16T12:06:03.031Z,13.37
2023-04-16T12:08:30.200Z,13.43
2023-04-16T12:10:57.444Z,13.51
2023-04-16T12:13:23.503Z,13.50
2023-04-16T12:15:49.646Z,13.57
2023-04-16T12:18:15.919Z,13.60
2023-04-16T12:20:41.972Z,13.65
2023-04-16T12:23:08.065Z,13.72
2023-04-16T12:25:34.417Z,13.77
2023-04-16T12:28:01.533Z,13.77
2023-04-16T12:30:27.739Z,13.71
2023-04-16T12:32:53.926Z,13.72
2023-04-16T12:35:20.592Z,13.80
2023-04-16T12:37:46.649Z,13.83
2023-04-16T12:40:12.897Z,13.78
2023-04-16T12:42:38.970Z,13.75
2023-04-16T12:45:05.379Z,13.70
2023-04-16T12:47:31.697Z,13.64
2023-04-16T12:49:57.878Z,13.65
2023-04-16T12:52:23.948Z,13.61
2023-04-16T12:54:50.109Z,13.61
2023-04-16T12:57:16.284Z,13.63
2023-04-16T12:59:42.352Z,13.66
2023-04-16T13:02:08.725Z,13.72
2023-04-16T13:04:35.332Z,13.80
2023-04-16T13:07:01.527Z,13.84
2023-04-16T13:09:28.010Z,13.82
2023-04-16T13:11:54.068Z,13.82
2023-04-16T13:14:20.437Z,13.87
2023-04-16T13:16:46.609Z,13.92
2023-04-16T13:19:12.856Z,13.99
2023-04-16T13:21:39.840Z,14.06
2023-04-16T13:24:05.954Z,14.10
2023-04-16T13:26:32.008Z,14.16
2023-04-16T13:28:58.051Z,14.15
2023-04-16T13:31:24.423Z,14.16
2023-04-16T13:33:50.659Z,14.18
2023-04-16T13:36:16.852Z,14.30
2023-04-16T13:38:43.203Z,14.46
2023-04-16T13:41:09.238Z,14.52
2023-04-16T13:43:35.324Z,14.57
2023-04-16T13:46:01.516Z,14.52
2023-04-16T13:48:27.670Z,14.42
2023-04-16T13:50:54.000Z,14.37
2023-04-16T13:53:21.341Z,14.34
2023-04-16T13:55:48.902Z,14.25
2023-04-16T13:58:15.025Z,14.16
2023-04-16T14:00:41.187Z,14.06
2023-04-16T14:03:07.332Z,13.96
2023-04-16T14:05:33.623Z,13.86
2023-04-16T14:07:59.859Z,13.78
2023-04-16T14:10:26.047Z,13.73
2023-04-16T14:12:52.237Z,13.72
2023-04-16T14:15:18.374Z,13.71
2023-04-16T14:17:44.652Z,13.70
2023-04-16T14:20:11.059Z,13.72
2023-04-16T14:22:37.336Z,13.74
2023-04-16T14:25:03.406Z,13.78
2023-04-16T14:27:29.593Z,13.77
2023-04-16T14:29:55.721Z,13.78
2023-04-16T14:32:21.825Z,13.78
2023-04-16T14:34:48.014Z,13.82
2023-04-16T14:37:14.185Z,13.88
2023-04-16T14:39:40.485Z,13.91
2023-04-16T14:42:06.607Z,13.93
2023-04-16T14:44:32.772Z,13.93
2023-04-16T14:46:58.853Z,13.97
2023-04-16T14:49:25.661Z,13.94
2023-04-16T14:51:51.853Z,13.89
2023-04-16T14:54:18.695Z,13.85
2023-04-16T14:56:45.045Z,13.75
2023-04-16T14:59:11.471Z,13.65
2023-04-16T15:01:41.265Z,13.57
2023-04-16T15:04:08.154Z,13.45
2023-04-16T15:06:36.073Z,13.37
2023-04-16T15:09:03.275Z,13.28
2023-04-16T15:11:29.593Z,13.21
2023-04-16T15:13:55.689Z,13.17
2023-04-16T15:16:21.809Z,13.11
2023-04-16T15:18:48.035Z,13.03
2023-04-16T15:21:14.246Z,12.99
2023-04-16T15:23:40.347Z,12.93
2023-04-16T15:26:06.571Z,12.88
2023-04-16T15:28:32.653Z,12.81
2023-04-16T15:30:58.799Z,12.77
2023-04-16T15:33:25.746Z,12.74
2023-04-16T15:35:51.879Z,12.71
2023-04-16T15:38:17.980Z,12.71
2023-04-16T15:40:44.056Z,12.67
2023-04-16T15:43:10.288Z,12.63
2023-04-16T15:45:36.862Z,12.60
2023-04-16T15:48:04.687Z,12.54
2023-04-16T15:50:30.997Z,12.49
2023-04-16T15:52:57.078Z,12.48
2023-04-16T15:55:23.206Z,12.46
2023-04-16T15:57:49.522Z,12.44
2023-04-16T16:00:16.488Z,12.40
2023-04-16T16:02:42.941Z,12.37
2023-04-16T16:05:09.508Z,12.32
2023-04-16T16:07:35.604Z,12.28
2023-04-16T16:10:01.853Z,12.22
2023-04-16T16:12:28.031Z,12.19
2023-04-16T16:14:54.108Z,12.14
2023-04-16T16:17:20.915Z,12.13
2023-04-16T16:19:47.103Z,12.11
2023-04-16T16:22:13.324Z,12.07
2023-04-16T16:24:39.402Z,12.02
2023-04-16T16:27:05.713Z,11.95
2023-04-16T16:29:31.757Z,11.92
2023-04-16T16:31:58.122Z,11.91
2023-04-16T16:34:24.311Z,11.89
2023-04-16T16:36:50.610Z,11.87
2023-04-16T16:39:16.769Z,11.85
2023-04-16T16:41:43.014Z,11.81
2023-04-16T16:44:09.060Z,11.79
2023-04-16T16:46:35.962Z,11.74
2023-04-16T16:49:04.534Z,11.72
2023-04-16T16:51:32.849Z,11.69
2023-04-16T16:53:58.954Z,11.66
2023-04-16T16:56:25.143Z,11.65
2023-04-16T16:58:51.204Z,11.63
2023-04-16T17:01:17.533Z,11.62
2023-04-16T17:03:43.835Z,11.60
2023-04-16T17:06:10.303Z,11.57
2023-04-16T17:08:36.406Z,11.56
2023-04-16T17:11:02.505Z,11.56
2023-04-16T17:13:29.438Z,11.56
2023-04-16T17:15:55.735Z,11.56
2023-04-16T17:18:21.871Z,11.55
2023-04-16T17:20:48.085Z,11.53
2023-04-16T17:23:14.198Z,11.53
2023-04-16T17:25:40.782Z,11.54
2023-04-16T17:28:06.925Z,11.55
2023-04-16T17:30:33.408Z,11.55
2023-04-16T17:32:59.851Z,11.53
2023-04-16T17:35:26.031Z,11.51
2023-04-16T17:37:52.190Z,11.48
2023-04-16T17:40:18.645Z,11.35
2023-04-16T17:42:44.965Z,11.27
2023-04-16T17:45:11.649Z,11.22
2023-04-16T17:47:38.220Z,11.12
2023-04-16T17:50:04.389Z,11.06
2023-04-16T17:52:30.611Z,11.02
2023-04-16T17:55:00.733Z,10.96
2023-04-16T17:57:26.815Z,10.91
2023-04-16T17:59:53.026Z,10.86
2023-04-16T18:02:19.800Z,10.84
2023-04-16T18:04:46.295Z,10.81
2023-04-16T18:07:12.843Z,10.72
2023-04-16T18:09:39.094Z,10.63
2023-04-16T18:12:05.695Z,10.61
2023-04-16T18:14:32.002Z,10.60
2023-04-16T18:16:58.403Z,10.50
2023-04-16T18:19:24.740Z,10.43
2023-04-16T18:21:51.049Z,10.38
2023-04-16T18:24:17.270Z,10.35
2023-04-16T18:26:46.622Z,10.32
2023-04-16T18:29:13.870Z,10.30
2023-04-16T18:31:40.536Z,10.27
2023-04-16T18:34:06.942Z,10.24
2023-04-16T18:36:33.396Z,10.19
2023-04-16T18:39:02.457Z,10.13
2023-04-16T18:41:29.365Z,10.01
2023-04-16T18:43:55.996Z,9.88
2023-04-16T18:46:22.592Z,9.81
2023-04-16T18:48:51.867Z,9.75
2023-04-16T18:51:18.361Z,9.68
2023-04-16T18:53:44.997Z,9.63
2023-04-16T18:56:11.500Z,9.57
2023-04-16T18:58:38.194Z,9.49
2023-04-16T19:01:07.147Z,9.42
2023-04-16T19:03:33.570Z,9.38
2023-04-16T19:06:00.878Z,9.39
2023-04-16T19:08:28.100Z,9.41
2023-04-16T19:10:54.672Z,9.44
2023-04-16T19:13:21.098Z,9.43
2023-04-16T19:15:47.874Z,9.45
2023-04-16T19:18:14.250Z,9.49
2023-04-16T19:20:41.768Z,9.46
2023-04-16T19:23:08.629Z,9.41
2023-04-16T19:25:35.794Z,9.36
2023-04-16T19:28:04.130Z,9.32
2023-04-16T19:30:30.569Z,9.30
2023-04-16T19:32:58.012Z,9.25
2023-04-16T19:35:24.687Z,9.19
2023-04-16T19:37:51.067Z,9.15
2023-04-16T19:40:18.102Z,9.15
2023-04-16T19:42:44.776Z,9.10
2023-04-16T19:45:11.015Z,9.10
2023-04-16T19:47:38.419Z,9.10
2023-04-16T19:50:05.224Z,9.11
2023-04-16T19:52:36.789Z,9.09
2023-04-16T19:55:04.166Z,9.11
2023-04-16T19:57:30.484Z,9.15
2023-04-16T19:59:57.051Z,9.17
2023-04-16T20:02:24.110Z,9.18
2023-04-16T20:04:52.304Z,9.10
2023-04-16T20:07:18.491Z,8.98
2023-04-16T20:09:44.876Z,8.85
2023-04-16T20:12:11.183Z,8.72
2023-04-16T20:14:37.536Z,8.61
2023-04-16T20:17:09.068Z,8.50
2023-04-16T20:19:37.345Z,8.44
2023-04-16T20:22:03.454Z,8.36
2023-04-16T20:24:30.357Z,8.34
2023-04-16T20:26:56.558Z,8.35
2023-04-16T20:29:22.683Z,8.40
2023-04-16T20:31:48.738Z,8.43
2023-04-16T20:34:14.924Z,8.45
2023-04-16T20:36:41.017Z,8.44
2023-04-16T20:39:07.318Z,8.43
2023-04-16T20:41:33.532Z,8.44
2023-04-16T20:44:04.646Z,8.45
2023-04-16T20:46:33.494Z,8.44
2023-04-16T20:49:00.460Z,8.44
2023-04-16T20:51:29.488Z,8.44
2023-04-16T20:53:55.626Z,8.44
2023-04-16T20:56:21.685Z,8.41
2023-04-16T20:58:47.831Z,8.40
2023-04-16T21:01:13.970Z,8.37
2023-04-16T21:03:40.474Z,8.34
2023-04-16T21:06:06.862Z,8.31
2023-04-16T21:08:32.913Z,8.28
2023-04-16T21:10:59.018Z,8.25
2023-04-16T21:13:25.306Z,8.25
2023-04-16T21:15:51.470Z,8.25
2023-04-16T21:18:17.918Z,8.26
2023-04-16T21:20:44.204Z,8.27
2023-04-16T21:23:10.236Z,8.27
2023-04-16T21:25:36.280Z,8.28
2023-04-16T21:28:02.368Z,8.18
2023-04-16T21:30:28.702Z,7.98
2023-04-16T21:32:54.835Z,7.85
2023-04-16T21:35:21.056Z,7.83
2023-04-16T21:37:47.090Z,7.83
2023-04-16T21:40:13.185Z,7.82
2023-04-16T21:42:41.440Z,7.81
2023-04-16T21:45:07.705Z,7.82
2023-04-16T21:47:33.795Z,7.81
2023-04-16T21:50:00.138Z,7.75
2023-04-16T21:52:26.221Z,7.67
2023-04-16T21:54:52.353Z,7.60
2023-04-16T21:57:18.533Z,7.53
2023-04-16T21:59:44.879Z,7.44
2023-04-16T22:02:11.024Z,7.36
2023-04-16T22:04:38.040Z,7.33
2023-04-16T22:07:04.990Z,7.34
2023-04-16T22:09:31.674Z,7.34
2023-04-16T22:11:57.786Z,7.33
2023-04-16T22:14:24.056Z,7.30
2023-04-16T22:16:51.561Z,7.31
2023-04-16T22:19:19.080Z,7.30
2023-04-16T22:21:45.251Z,7.29
2023-04-16T22:24:11.643Z,7.27
2023-04-16T22:26:37.766Z,7.28
2023-04-16T22:29:03.802Z,7.29
2023-04-16T22:31:29.941Z,7.30
2023-04-16T22:33:56.062Z,7.28
2023-04-16T22:36:22.116Z,7.21
2023-04-16T22:38:48.170Z,7.11
2023-04-16T22:41:14.728Z,6.99
2023-04-16T22:43:42.302Z,6.85
2023-04-16T22:46:08.827Z,6.76
2023-04-16T22:48:38.298Z,6.76
2023-04-16T22:51:04.373Z,6.73
2023-04-16T22:53:30.569Z,6.69
2023-04-16T22:55:56.650Z,6.69
2023-04-16T22:58:22.761Z,6.64
2023-04-16T23:00:48.870Z,6.61
2023-04-16T23:03:15.252Z,6.56
2023-04-16T23:05:41.493Z,6.48
2023-04-16T23:08:07.712Z,6.41
2023-04-16T23:10:34.099Z,6.37
2023-04-16T23:13:00.326Z,6.31
2023-04-16T23:15:26.526Z,6.29
2023-04-16T23:17:52.751Z,6.26
2023-04-16T23:20:19.005Z,6.25
2023-04-16T23:22:45.973Z,6.22
2023-04-16T23:25:12.508Z,6.22
2023-04-16T23:27:38.724Z,6.22
2023-04-16T23:30:05.042Z,6.22
2023-04-16T23:32:31.271Z,6.18
2023-04-16T23:34:57.626Z,6.13
2023-04-16T23:37:23.777Z,6.10
2023-04-16T23:39:49.981Z,6.09
2023-04-16T23:42:16.313Z,6.05
2023-04-16T23:44:42.441Z,5.98
2023-04-16T23:47:08.950Z,5.89
2023-04-16T23:49:35.112Z,5.86
2023-04-16T23:52:01.248Z,5.83
2023-04-16T23:54:27.492Z,5.76
2023-04-16T23:56:53.651Z,5.74
2023-04-16T23:59:19.877Z,5.71
